Time;durP1;ratioP1;P1;durP2;ratioP2;P2;SDS_P1;SDS_P2;PMS_P1;PMS_P2;Temp;Humidity;BMP_temperature;BMP_pressure;BME280_temperature;BME280_humidity;BME280_pressure;Samples;Min_cycle;Max_cycle;Signal;HPM_P1;HPM_P2
2021/01/05 00:00:05;;;;;;;51.65;28.40;;;;;;;1.94;94.57;92349.37;1807341;79;21185;-83
2021/01/05 00:02:36;;;;;;;49.58;27.93;;;;;;;1.97;94.70;92349.79;1808221;78;21205;-79
2021/01/05 00:05:04;;;;;;;47.93;27.05;;;;;;;1.95;95.07;92354.93;1780855;78;21177;-77
2021/01/05 00:07:31;;;;;;;60.15;31.37;;;;;;;2.00;95.21;92357.11;1764190;81;21209;-76
2021/01/05 00:10:00;;;;;;;69.90;32.73;;;;;;;2.03;95.18;92347.77;1763555;81;21277;-78
2021/01/05 00:12:28;;;;;;;71.25;34.95;;;;;;;2.07;95.05;92352.59;1764200;81;21778;-78
2021/01/05 00:14:56;;;;;;;64.45;33.48;;;;;;;2.12;95.09;92349.57;1764988;80;21213;-80
2021/01/05 00:17:23;;;;;;;74.60;35.00;;;;;;;2.15;95.01;92343.47;1760759;81;21174;-81
2021/01/05 00:19:51;;;;;;;65.25;33.90;;;;;;;2.15;94.78;92350.18;1769867;80;21266;-79
2021/01/05 00:22:19;;;;;;;65.87;36.63;;;;;;;2.10;94.66;92351.83;1787452;79;21185;-82
2021/01/05 00:24:46;;;;;;;54.95;28.90;;;;;;;2.09;94.72;92352.21;1842281;77;21647;-80
2021/01/05 00:27:14;;;;;;;64.45;30.85;;;;;;;2.08;94.64;92352.78;1787771;80;21198;-79
2021/01/05 00:29:41;;;;;;;61.35;30.37;;;;;;;2.06;94.46;92348.34;1791035;79;21447;-80
2021/01/05 00:32:14;;;;;;;53.68;28.92;;;;;;;2.03;94.52;92338.92;1775343;79;21213;-81
2021/01/05 00:34:44;;;;;;;64.27;34.20;;;;;;;2.03;94.83;92347.77;1762086;80;21652;-78
2021/01/05 00:37:14;;;;;;;92.72;45.28;;;;;;;2.04;95.13;92338.57;1763147;80;21209;-78
2021/01/05 00:39:42;;;;;;;59.77;31.70;;;;;;;2.03;94.95;92343.73;1781876;80;21069;-82
2021/01/05 00:42:10;;;;;;;48.13;26.40;;;;;;;1.96;94.76;92342.32;1803957;78;21708;-80
2021/01/05 00:44:38;;;;;;;69.80;34.20;;;;;;;1.94;95.40;92347.27;1807647;79;21165;-81
2021/01/05 00:47:05;;;;;;;59.50;32.58;;;;;;;1.91;95.35;92343.39;1785655;79;21656;-82
2021/01/05 00:49:33;;;;;;;66.45;34.50;;;;;;;1.89;95.23;92340.90;1763464;79;21206;-80
2021/01/05 00:52:02;;;;;;;61.68;29.67;;;;;;;1.85;95.33;92340.09;1761685;80;21644;-79
2021/01/05 00:54:33;;;;;;;67.37;34.08;;;;;;;1.83;95.56;92339.09;1749286;80;21266;-78
2021/01/05 00:57:05;;;;;;;59.00;31.35;;;;;;;1.86;95.68;92337.03;1800929;79;22089;-81
2021/01/05 00:59:33;;;;;;;54.27;28.87;;;;;;;1.89;95.91;92336.88;1748147;80;21687;-79
2021/01/05 01:02:02;;;;;;;50.92;25.00;;;;;;;1.89;95.87;92333.63;1823190;76;21192;-80
2021/01/05 01:04:31;;;;;;;63.90;26.30;;;;;;;1.87;95.90;92327.84;1834648;77;21180;-83
2021/01/05 01:06:59;;;;;;;60.10;27.15;;;;;;;1.88;96.03;92329.41;1804586;77;21435;-80
2021/01/05 01:09:29;;;;;;;53.83;26.57;;;;;;;1.88;95.98;92324.05;1844717;77;21189;-80
2021/01/05 01:12:04;;;;;;;53.80;27.17;;;;;;;1.87;95.86;92327.08;1797384;77;21166;-77
2021/01/05 01:14:34;;;;;;;45.80;24.90;;;;;;;1.89;96.05;92332.86;1821819;76;21461;-83
2021/01/05 01:17:02;;;;;;;49.42;25.27;;;;;;;1.92;95.98;92324.86;1807572;77;21681;-79
2021/01/05 01:19:31;;;;;;;42.93;23.15;;;;;;;1.90;95.80;92320.98;1763588;80;21198;-78
2021/01/05 01:21:59;;;;;;;47.90;24.27;;;;;;;1.88;95.80;92316.55;1759786;80;21517;-80
2021/01/05 01:24:28;;;;;;;50.00;24.25;;;;;;;1.88;96.01;92319.23;1782676;80;21200;-76
2021/01/05 01:26:56;;;;;;;55.10;25.48;;;;;;;1.90;96.19;92318.30;1799000;79;21216;-78
2021/01/05 01:29:26;;;;;;;59.13;25.95;;;;;;;1.87;96.24;92305.06;1821621;77;21472;-79
2021/01/05 01:31:55;;;;;;;44.05;24.95;;;;;;;1.89;96.42;92304.13;1818084;77;21605;-78
2021/01/05 01:34:25;;;;;;;45.00;24.57;;;;;;;1.93;96.59;92312.98;1837262;77;21510;-81
2021/01/05 01:37:07;;;;;;;45.78;23.10;;;;;;;1.99;96.58;92313.98;1786859;80;21198;-80
2021/01/05 01:39:36;;;;;;;47.93;23.65;;;;;;;2.03;96.64;92304.06;1821559;78;22497;-81
2021/01/05 01:42:06;;;;;;;52.80;26.20;;;;;;;2.05;96.45;92301.22;1809954;77;21202;-80
2021/01/05 01:44:37;;;;;;;45.20;24.63;;;;;;;2.06;96.35;92297.97;1779204;78;21643;-82
2021/01/05 01:47:22;;;;;;;47.50;24.80;;;;;;;2.08;96.38;92303.75;1805689;77;21174;-78
2021/01/05 01:49:56;;;;;;;61.15;29.18;;;;;;;2.08;96.49;92304.52;1775867;79;21175;-80
2021/01/05 01:52:56;;;;;;;50.98;26.93;;;;;;;2.09;96.49;92302.60;1777434;76;22469;-81
2021/01/05 01:55:39;;;;;;;56.95;31.97;;;;;;;2.10;96.46;92304.13;1799498;78;21186;-78
2021/01/05 01:58:15;;;;;;;49.98;28.12;;;;;;;2.08;96.33;92293.79;1773341;80;21610;-82
2021/01/05 02:01:03;;;;;;;48.63;27.37;;;;;;;2.09;96.45;92292.64;1816893;78;21142;-79
2021/01/05 02:03:54;;;;;;;43.25;24.32;;;;;;;2.15;96.66;92289.84;1799213;78;21261;-75
2021/01/05 02:06:53;;;;;;;48.35;28.05;;;;;;;2.18;96.58;92286.97;1808158;78;21485;-80
2021/01/05 02:10:10;;;;;;;39.80;23.27;;;;;;;2.18;96.53;92277.58;1800268;78;21198;-80
2021/01/05 02:13:04;;;;;;;46.95;26.05;;;;;;;2.18;96.47;92266.30;1808994;78;21127;-79
2021/01/05 02:15:47;;;;;;;35.92;22.13;;;;;;;2.18;96.36;92267.65;1832039;76;21155;-78
2021/01/05 02:18:52;;;;;;;38.60;23.42;;;;;;;2.16;96.46;92266.47;1786307;78;21172;-77
2021/01/05 02:21:25;;;;;;;39.40;23.60;;;;;;;2.19;96.71;92263.05;1823765;76;21650;-77
2021/01/05 02:24:17;;;;;;;44.40;25.17;;;;;;;2.21;96.71;92268.03;1801864;78;21432;-78
2021/01/05 02:27:09;;;;;;;44.50;27.73;;;;;;;2.22;96.82;92266.88;1786223;78;21043;-79
2021/01/05 02:30:07;;;;;;;40.85;22.82;;;;;;;2.19;96.58;92259.03;1807422;78;21187;-82
2021/01/05 02:32:51;;;;;;;39.73;22.30;;;;;;;2.17;96.44;92257.27;1780278;80;21163;-76
2021/01/05 02:35:28;;;;;;;32.17;18.62;;;;;;;2.16;96.61;92247.12;1762809;80;21657;-77
2021/01/05 02:38:30;;;;;;;28.85;18.62;;;;;;;2.14;96.52;92239.23;1841587;77;21155;-75
2021/01/05 02:41:31;;;;;;;48.23;24.85;;;;;;;2.08;96.86;92235.37;1783843;80;21056;-76
2021/01/05 02:44:32;;;;;;;39.20;21.35;;;;;;;2.09;97.22;92239.58;1763667;80;21192;-75
2021/01/05 02:47:33;;;;;;;37.13;21.68;;;;;;;2.08;97.13;92236.70;1799147;79;21629;-76
2021/01/05 02:50:35;;;;;;;38.02;22.07;;;;;;;2.05;97.02;92238.21;1776899;80;22244;-78
2021/01/05 02:53:35;;;;;;;29.92;18.67;;;;;;;2.02;96.89;92228.80;1763623;80;21195;-79
2021/01/05 02:59:38;;;;;;;33.50;20.17;;;;;;;2.06;97.33;92224.99;1808418;78;21216;-77
2021/01/05 03:02:39;;;;;;;33.85;20.88;;;;;;;2.04;97.24;92223.84;1821026;78;21106;-78
2021/01/05 03:05:26;;;;;;;33.92;19.48;;;;;;;2.02;97.39;92220.17;1786551;80;21751;-77
2021/01/05 03:08:07;;;;;;;33.88;20.68;;;;;;;2.04;97.63;92214.46;1775530;80;21137;-77
2021/01/05 03:11:01;;;;;;;36.38;18.80;;;;;;;2.10;97.91;92208.36;1812884;78;21162;-77
2021/01/05 03:13:55;;;;;;;32.78;19.20;;;;;;;2.15;97.75;92209.95;1833129;77;21170;-76
2021/01/05 03:16:45;;;;;;;30.77;17.12;;;;;;;2.13;97.55;92199.58;1761034;80;21036;-75
2021/01/05 03:20:25;;;;;;;31.60;18.25;;;;;;;2.14;97.57;92197.66;1786518;78;22096;-75
2021/01/05 03:23:21;;;;;;;27.98;17.45;;;;;;;2.13;97.65;92195.55;1780663;79;21219;-75
2021/01/05 03:26:08;;;;;;;28.45;17.82;;;;;;;2.12;97.60;92193.26;1783518;79;21125;-76
2021/01/05 03:29:10;;;;;;;29.63;18.50;;;;;;;2.13;97.84;92180.80;1766261;78;21235;-76
2021/01/05 03:32:03;;;;;;;29.27;18.10;;;;;;;2.17;97.98;92195.01;1760450;80;21298;-77
2021/01/05 03:34:51;;;;;;;28.35;16.48;;;;;;;2.23;98.06;92191.42;1760499;80;21248;-75
2021/01/05 03:37:38;;;;;;;28.50;16.73;;;;;;;2.22;97.64;92199.28;1758385;81;21479;-77
2021/01/05 03:40:17;;;;;;;23.12;14.00;;;;;;;2.16;97.46;92188.69;1801614;79;21156;-76
2021/01/05 03:43:04;;;;;;;27.42;17.05;;;;;;;2.17;97.64;92192.33;1788469;79;21194;-77
2021/01/05 03:45:51;;;;;;;27.95;16.30;;;;;;;2.17;97.69;92181.60;1840632;77;21166;-75
2021/01/05 03:48:37;;;;;;;28.42;17.35;;;;;;;2.20;97.73;92178.75;1806471;77;22305;-77
2021/01/05 03:51:24;;;;;;;24.95;15.40;;;;;;;2.21;97.68;92168.80;1783177;79;21618;-75
2021/01/05 03:54:10;;;;;;;25.65;14.78;;;;;;;2.22;97.71;92162.28;1779147;78;21167;-75
2021/01/05 03:56:57;;;;;;;21.42;13.58;;;;;;;2.26;97.81;92158.50;1745408;81;21180;-76
2021/01/05 03:59:43;;;;;;;17.65;13.03;;;;;;;2.31;97.89;92157.37;1745529;81;21223;-77
2021/01/05 04:02:29;;;;;;;18.40;13.00;;;;;;;2.35;97.97;92150.88;1746083;82;21468;-76
2021/01/05 04:05:09;;;;;;;26.23;17.02;;;;;;;2.40;97.94;92155.89;1746179;81;21270;-77
2021/01/05 04:07:49;;;;;;;24.57;15.50;;;;;;;2.44;98.00;92165.30;1744683;82;21172;-75
2021/01/05 04:10:39;;;;;;;19.80;12.37;;;;;;;2.43;97.71;92153.80;1816665;78;21186;-75
2021/01/05 04:13:28;;;;;;;25.25;16.27;;;;;;;2.40;97.40;92169.30;1803254;78;21227;-75
2021/01/05 04:17:00;;;;;;;18.17;12.37;;;;;;;2.35;97.30;92164.30;1817127;77;21172;-76
2021/01/05 04:20:31;;;;;;;11.35;7.72;;;;;;;2.31;97.36;92162.16;1798911;77;21180;-77
2021/01/05 04:24:02;;;;;;;12.63;8.03;;;;;;;2.33;97.75;92159.89;1778090;79;21678;-77
2021/01/05 04:27:34;;;;;;;16.00;10.35;;;;;;;2.40;97.98;92155.89;1749340;80;21662;-76
2021/01/05 04:30:29;;;;;;;21.17;14.90;;;;;;;2.45;97.96;92147.31;1757532;79;21262;-78
2021/01/05 04:33:00;;;;;;;24.18;15.30;;;;;;;2.48;98.02;92150.56;1777196;78;21214;-77
2021/01/05 04:35:28;;;;;;;20.35;14.00;;;;;;;2.50;98.03;92143.69;1758373;79;21216;-79
2021/01/05 04:37:57;;;;;;;14.60;10.10;;;;;;;2.51;97.76;92146.56;1824431;78;21669;-78
2021/01/05 04:40:35;;;;;;;18.85;12.53;;;;;;;2.51;97.67;92148.48;1812507;77;21115;-77
2021/01/05 04:43:36;;;;;;;23.07;17.02;;;;;;;2.55;97.75;92157.31;1874329;75;21128;-77
2021/01/05 04:46:22;;;;;;;24.72;15.32;;;;;;;2.57;97.77;92153.70;1850547;76;21620;-79
2021/01/05 04:49:07;;;;;;;21.48;13.72;;;;;;;2.59;97.45;92160.79;1836664;77;21177;-77
2021/01/05 04:51:43;;;;;;;24.43;14.53;;;;;;;2.55;97.23;92157.31;1766531;79;21723;-76
2021/01/05 04:54:35;;;;;;;30.15;16.55;;;;;;;2.51;97.28;92161.32;1786526;78;21220;-76
2021/01/05 04:57:20;;;;;;;26.42;16.30;;;;;;;2.51;97.35;92166.69;1840812;77;21120;-74
2021/01/05 04:59:58;;;;;;;21.05;14.45;;;;;;;2.50;97.33;92165.16;1814114;76;21369;-75
2021/01/05 05:02:34;;;;;;;25.00;15.03;;;;;;;2.49;97.35;92156.16;1852851;77;21098;-76
2021/01/05 05:11:32;;;;;;;27.02;16.25;;;;;;;2.59;97.52;92151.39;1765213;80;21150;-75
2021/01/05 05:14:21;;;;;;;24.92;15.38;;;;;;;2.61;97.39;92140.49;1728613;80;22454;-77
2021/01/05 05:17:16;;;;;;;12.85;9.20;;;;;;;2.62;97.18;92145.28;1768606;80;21163;-77
2021/01/05 05:19:55;;;;;;;21.43;15.60;;;;;;;2.60;97.10;92157.75;1804809;77;21480;-76
2021/01/05 05:22:46;;;;;;;18.77;11.95;;;;;;;2.58;97.08;92156.00;1845433;77;21177;-76
2021/01/05 05:25:24;;;;;;;36.75;23.12;;;;;;;2.60;97.26;92144.91;1843058;77;21199;-75
2021/01/05 05:27:58;;;;;;;26.45;19.55;;;;;;;2.61;97.27;92140.49;1795974;77;21147;-76
2021/01/05 05:30:40;;;;;;;23.92;16.12;;;;;;;2.58;97.06;92145.84;1847930;76;21178;-76
2021/01/05 05:33:09;;;;;;;26.95;19.05;;;;;;;2.53;96.80;92142.17;1823773;78;21436;-76
2021/01/05 05:36:18;;;;;;;24.87;16.07;;;;;;;2.52;96.96;92150.02;1836536;77;21216;-77
2021/01/05 05:39:07;;;;;;;22.10;13.20;;;;;;;2.49;96.87;92146.19;1758447;77;21166;-77
2021/01/05 05:42:14;;;;;;;17.40;13.15;;;;;;;2.47;96.71;92149.03;1806356;77;22482;-75
2021/01/05 05:45:05;;;;;;;12.03;9.45;;;;;;;2.48;96.88;92140.59;1832947;75;21175;-75
2021/01/05 05:47:41;;;;;;;13.55;9.90;;;;;;;2.46;96.87;92141.56;1857372;76;21305;-77
2021/01/05 05:50:15;;;;;;;17.75;11.40;;;;;;;2.44;97.44;92143.83;1814321;77;21205;-77
2021/01/05 05:52:56;;;;;;;12.68;7.70;;;;;;;2.46;97.56;92148.27;1890635;75;21166;-76
2021/01/05 05:55:42;;;;;;;13.13;8.93;;;;;;;2.43;97.40;92151.70;1832441;75;21381;-75
2021/01/05 05:58:13;;;;;;;17.35;12.55;;;;;;;2.42;97.49;92152.27;1872163;76;21630;-76
2021/01/05 06:00:51;;;;;;;20.90;12.25;;;;;;;2.41;97.47;92152.66;1835442;76;21183;-76
2021/01/05 06:03:21;;;;;;;44.18;34.75;;;;;;;2.41;97.45;92154.00;1828701;76;21186;-76
2021/01/05 06:05:49;;;;;;;23.25;16.75;;;;;;;2.39;97.51;92150.33;1875666;75;21158;-76
2021/01/05 06:08:19;;;;;;;22.40;17.25;;;;;;;2.40;97.76;92149.75;1891152;75;22251;-77
2021/01/05 06:10:50;;;;;;;19.60;15.75;;;;;;;2.43;97.81;92151.70;1835724;76;21164;-77
2021/01/05 06:13:18;;;;;;;15.20;11.40;;;;;;;2.45;97.78;92150.77;1837752;77;21194;-78
2021/01/05 06:15:46;;;;;;;14.75;12.03;;;;;;;2.47;97.75;92144.43;1786907;78;21182;-78
2021/01/05 06:18:16;;;;;;;9.30;8.05;;;;;;;2.52;97.86;92145.98;1796689;79;21178;-78
2021/01/05 06:20:44;;;;;;;19.92;13.40;;;;;;;2.56;97.88;92150.25;1803499;79;21644;-76
2021/01/05 06:23:13;;;;;;;14.90;9.95;;;;;;;2.61;97.79;92152.56;1800645;79;21185;-75
2021/01/05 06:25:41;;;;;;;15.72;10.65;;;;;;;2.63;97.55;92154.86;1803619;78;21191;-76
2021/01/05 06:28:10;;;;;;;17.70;12.35;;;;;;;2.60;97.43;92152.38;1791253;78;21037;-79
2021/01/05 06:30:38;;;;;;;19.17;12.25;;;;;;;2.56;97.20;92152.94;1787426;79;21203;-77
2021/01/05 06:36:40;;;;;;;18.87;14.33;;;;;;;2.51;97.24;92146.56;1811086;78;21116;-76
2021/01/05 06:39:09;;;;;;;14.33;10.53;;;;;;;2.54;97.25;92156.55;1818015;78;21096;-76
2021/01/05 06:41:39;;;;;;;17.82;15.70;;;;;;;2.51;97.07;92153.84;1764904;80;21177;-76
2021/01/05 06:44:07;;;;;;;15.30;13.43;;;;;;;2.49;97.23;92157.49;1816917;78;21127;-75
2021/01/05 06:46:35;;;;;;;27.00;17.00;;;;;;;2.52;97.59;92162.88;1784667;79;22110;-75
2021/01/05 06:49:03;;;;;;;26.60;17.23;;;;;;;2.58;97.51;92155.23;1845215;77;21729;-76
2021/01/05 06:51:32;;;;;;;22.90;15.50;;;;;;;2.60;97.32;92156.41;1787387;79;21245;-78
2021/01/05 06:54:00;;;;;;;18.23;10.20;;;;;;;2.62;97.15;92151.99;1782032;78;21314;-78
2021/01/05 06:59:20;;;;;;;10.93;8.23;;;;;;;2.59;96.93;92155.42;1892967;75;23893;-83
2021/01/05 07:01:50;;;;;;;7.72;6.30;;;;;;;2.53;97.18;92156.94;1830547;77;21227;-83
2021/01/05 07:04:25;;;;;;;9.15;6.87;;;;;;;2.52;97.41;92152.69;1826478;78;21176;-86
2021/01/05 07:07:01;;;;;;;10.23;7.95;;;;;;;2.52;97.47;92149.46;1793500;78;21142;-87
2021/01/05 07:09:30;;;;;;;17.00;11.88;;;;;;;2.52;97.72;92149.46;1793050;79;21750;-83
2021/01/05 07:12:00;;;;;;;11.48;8.23;;;;;;;2.58;97.90;92157.91;1786433;79;21201;-84
2021/01/05 07:14:28;;;;;;;28.55;19.85;;;;;;;2.59;97.89;92158.87;1810161;79;21205;-83
2021/01/05 07:16:57;;;;;;;31.93;23.35;;;;;;;2.62;97.74;92160.05;1736270;79;21445;-83
2021/01/05 07:19:31;;;;;;;15.15;10.55;;;;;;;2.66;97.72;92159.48;1766124;80;21201;-85
2021/01/05 07:21:59;;;;;;;7.55;5.40;;;;;;;2.71;97.76;92155.67;1754623;80;21197;-87
2021/01/05 07:24:27;;;;;;;12.53;7.97;;;;;;;2.76;97.72;92151.30;1781602;79;21225;-82
2021/01/05 07:26:56;;;;;;;6.70;6.00;;;;;;;2.77;97.66;92153.59;1781539;79;21290;-85
2021/01/05 07:29:24;;;;;;;7.75;6.35;;;;;;;2.81;97.62;92155.72;1781817;79;22668;-85
2021/01/05 07:31:52;;;;;;;9.93;7.08;;;;;;;2.87;97.61;92152.13;1796053;79;21189;-86
2021/01/05 07:34:23;;;;;;;11.73;8.40;;;;;;;2.89;97.51;92155.19;1788705;78;21317;-85
2021/01/05 07:37:01;;;;;;;15.08;9.78;;;;;;;2.92;97.34;92159.23;1758062;80;21473;-85
2021/01/05 07:39:32;;;;;;;10.68;7.47;;;;;;;2.95;97.17;92162.31;1770140;80;21138;-84
2021/01/05 07:42:30;;;;;;;12.30;7.33;;;;;;;2.98;97.13;92162.34;1789864;80;22547;-82
2021/01/05 07:45:05;;;;;;;10.72;6.37;;;;;;;2.98;97.09;92157.55;1790047;80;21158;-84
2021/01/05 07:47:38;;;;;;;10.25;6.22;;;;;;;3.02;97.03;92163.70;1790030;80;21189;-84
2021/01/05 07:50:20;;;;;;;8.20;5.33;;;;;;;3.02;96.85;92165.80;1790637;80;21196;-85
2021/01/05 07:52:49;;;;;;;10.38;6.15;;;;;;;3.02;96.75;92161.01;1714327;80;21161;-84
2021/01/05 07:55:21;;;;;;;10.43;6.42;;;;;;;3.05;96.77;92166.97;1780616;80;21443;-86
2021/01/05 07:57:50;;;;;;;11.25;5.58;;;;;;;3.05;96.65;92166.97;1777714;79;21513;-85
2021/01/05 08:00:22;;;;;;;10.50;7.28;;;;;;;3.05;96.56;92170.42;1752067;80;21197;-87
2021/01/05 08:02:51;;;;;;;16.10;8.53;;;;;;;3.04;96.43;92176.16;1813960;79;21193;-89
2021/01/05 08:05:24;;;;;;;10.38;7.05;;;;;;;3.05;96.37;92164.29;1781646;79;21186;-87
2021/01/05 08:07:52;;;;;;;8.95;5.90;;;;;;;3.04;96.24;92161.38;1763598;79;21352;-89
2021/01/05 08:10:28;;;;;;;8.98;5.83;;;;;;;3.01;96.14;92157.56;1773378;80;21185;-89
2021/01/05 08:13:02;;;;;;;7.35;5.60;;;;;;;3.00;96.04;92156.58;1773652;80;21212;-89
2021/01/05 08:15:31;;;;;;;9.00;5.58;;;;;;;2.95;95.91;92157.71;1773811;80;21288;-87
2021/01/05 08:18:00;;;;;;;11.18;5.87;;;;;;;2.93;96.02;92159.99;1773298;80;21198;-86
2021/01/05 08:20:36;;;;;;;8.75;5.20;;;;;;;2.91;96.00;92160.95;1784339;79;21272;-88
2021/01/05 08:23:05;;;;;;;10.32;5.30;;;;;;;2.92;96.01;92167.86;1784720;77;21208;-86
2021/01/05 08:25:40;;;;;;;8.83;5.00;;;;;;;2.90;96.03;92165.56;1785305;80;21205;-88
2021/01/05 08:28:13;;;;;;;7.00;5.15;;;;;;;2.89;96.06;92162.66;1808731;79;21182;-90
2021/01/05 08:30:44;;;;;;;7.62;4.83;;;;;;;2.87;96.00;92163.63;1813072;79;21137;-87
2021/01/05 08:33:15;;;;;;;7.40;4.83;;;;;;;2.86;95.97;92159.41;1782488;79;21387;-89
2021/01/05 08:35:49;;;;;;;8.10;5.47;;;;;;;2.86;95.97;92157.30;1809973;79;21208;-87
2021/01/05 08:38:19;;;;;;;8.03;5.17;;;;;;;2.87;95.93;92164.20;1809585;79;21193;-88
2021/01/05 08:40:48;;;;;;;10.50;6.03;;;;;;;2.85;95.77;92162.45;1810125;79;21169;-89
2021/01/05 08:43:18;;;;;;;10.20;5.65;;;;;;;2.84;95.84;92170.32;1809519;79;21157;-90
2021/01/05 08:45:46;;;;;;;8.13;5.40;;;;;;;2.85;95.83;92165.91;1808610;78;21488;-90
2021/01/05 08:48:14;;;;;;;11.38;6.78;;;;;;;2.83;95.74;92162.84;1808798;78;21679;-89
2021/01/05 08:50:52;;;;;;;9.25;6.20;;;;;;;2.84;95.84;92165.72;1759106;78;58202;-82
2021/01/05 08:53:23;;;;;;;7.67;4.50;;;;;;;2.88;95.91;92167.84;1724276;81;21200;-79
2021/01/05 08:55:51;;;;;;;6.50;4.08;;;;;;;2.91;95.77;92175.15;1717607;82;21183;-82
2021/01/05 08:58:19;;;;;;;6.05;3.67;;;;;;;2.92;95.73;92178.02;1717664;83;21384;-80
2021/01/05 09:00:49;;;;;;;6.97;3.90;;;;;;;2.94;95.48;92174.98;1717830;82;21077;-81
2021/01/05 09:03:18;;;;;;;7.08;4.37;;;;;;;2.95;95.38;92179.77;1717996;83;21211;-79
2021/01/05 09:05:46;;;;;;;5.97;4.65;;;;;;;2.95;95.35;92179.20;1772933;80;21232;-83
2021/01/05 09:08:15;;;;;;;7.15;4.53;;;;;;;2.95;95.26;92176.51;1748977;80;21213;-79
2021/01/05 09:10:43;;;;;;;6.03;4.42;;;;;;;2.94;95.16;92167.50;1731108;82;21511;-80
2021/01/05 09:13:11;;;;;;;8.13;5.42;;;;;;;2.93;95.32;92161.34;1702212;82;21215;-81
2021/01/05 09:15:40;;;;;;;6.78;5.25;;;;;;;2.92;95.33;92165.17;1751265;79;21750;-81
2021/01/05 09:18:10;;;;;;;6.85;4.53;;;;;;;2.94;95.39;92164.23;1815649;78;21161;-82
2021/01/05 09:20:40;;;;;;;7.67;4.75;;;;;;;2.96;95.40;92156.56;1782713;78;21189;-80
2021/01/05 09:23:08;;;;;;;6.10;5.17;;;;;;;2.98;95.54;92148.14;1816838;78;22467;-78
2021/01/05 09:25:40;;;;;;;9.40;5.90;;;;;;;3.01;95.61;92152.73;1833435;78;21182;-78
2021/01/05 09:28:09;;;;;;;7.15;5.28;;;;;;;3.05;95.49;92160.26;1833500;78;21182;-81
2021/01/05 09:30:37;;;;;;;6.87;5.15;;;;;;;3.07;95.47;92165.43;1831688;78;21400;-78
2021/01/05 09:33:05;;;;;;;9.95;6.08;;;;;;;3.10;95.48;92159.30;1799621;79;22088;-83
2021/01/05 09:35:36;;;;;;;9.10;5.85;;;;;;;3.13;95.36;92160.47;1799959;78;21426;-81
2021/01/05 09:38:08;;;;;;;8.20;5.95;;;;;;;3.16;95.34;92159.14;1793123;79;21974;-78
2021/01/05 09:40:34;;;;;;;7.70;6.12;;;;;;;3.21;95.30;92151.87;1817010;78;21140;-78
2021/01/05 09:43:05;;;;;;;11.35;8.33;;;;;;;3.22;95.24;92150.70;1806575;79;21105;-82
2021/01/05 09:45:33;;;;;;;9.35;7.17;;;;;;;3.29;95.25;92150.73;1767211;81;21111;-82
2021/01/05 09:48:15;;;;;;;8.78;7.33;;;;;;;3.31;95.08;92150.55;1742251;80;21560;-77
2021/01/05 09:50:44;;;;;;;12.95;8.23;;;;;;;3.37;95.16;92152.28;1784704;80;21140;-81
2021/01/05 09:53:12;;;;;;;11.75;7.75;;;;;;;3.39;94.88;92154.03;1763672;79;21208;-82
2021/01/05 09:55:41;;;;;;;10.35;6.92;;;;;;;3.42;94.79;92154.59;1797789;79;21172;-77
2021/01/05 09:58:09;;;;;;;7.80;5.75;;;;;;;3.43;94.70;92159.41;1804041;78;21694;-79
2021/01/05 10:00:37;;;;;;;7.03;5.75;;;;;;;3.45;94.45;92162.48;1831201;78;22552;-84
2021/01/05 10:03:06;;;;;;;9.78;7.42;;;;;;;3.45;94.32;92157.10;1794888;78;21230;-81
2021/01/05 10:05:34;;;;;;;9.55;7.55;;;;;;;3.46;94.22;92155.39;1841430;77;21190;-79
2021/01/05 10:08:03;;;;;;;7.20;6.33;;;;;;;3.47;94.11;92155.58;1843136;77;21159;-79
2021/01/05 10:10:32;;;;;;;6.10;4.67;;;;;;;3.53;93.55;92146.55;1831414;78;21637;-80
2021/01/05 10:13:00;;;;;;;5.85;4.60;;;;;;;3.53;93.55;92146.55;1831038;77;21363;-82
2021/01/05 10:15:29;;;;;;;33.18;19.85;;;;;;;3.52;93.44;92145.02;1830970;78;21473;-79
2021/01/05 10:17:58;;;;;;;7.72;5.95;;;;;;;3.54;93.14;92137.36;1790240;78;21580;-79
2021/01/05 10:20:26;;;;;;;7.45;6.42;;;;;;;3.51;93.13;92137.54;1767924;80;21675;-80
2021/01/05 10:22:55;;;;;;;5.83;5.17;;;;;;;3.48;92.82;92130.81;1793726;79;21611;-81
2021/01/05 10:25:24;;;;;;;7.15;5.22;;;;;;;3.47;93.11;92125.25;1787516;80;21640;-76
2021/01/05 10:27:54;;;;;;;9.10;5.65;;;;;;;3.48;93.15;92123.52;1788054;80;21189;-80
2021/01/05 10:30:23;;;;;;;4.72;3.95;;;;;;;3.50;93.14;92122.58;1759254;81;21216;-78
2021/01/05 10:32:51;;;;;;;6.30;4.53;;;;;;;3.50;93.05;92127.95;1813478;78;21750;-78
2021/01/05 10:35:20;;;;;;;6.65;4.87;;;;;;;3.54;92.97;92119.89;1820982;78;21669;-82
2021/01/05 10:37:49;;;;;;;7.03;5.00;;;;;;;3.53;92.82;92115.64;1769715;80;22635;-79
2021/01/05 10:40:19;;;;;;;16.82;9.15;;;;;;;3.53;92.74;92110.27;1778249;80;22659;-80
2021/01/05 10:42:49;;;;;;;6.75;5.58;;;;;;;3.52;92.71;92120.26;1783879;80;21349;-78
2021/01/05 10:45:22;;;;;;;6.85;5.03;;;;;;;3.49;92.59;92116.98;1784684;80;21140;-81
2021/01/05 10:47:52;;;;;;;5.95;5.12;;;;;;;3.49;92.59;92116.98;1779537;80;21164;-77
2021/01/05 10:50:23;;;;;;;8.20;5.62;;;;;;;3.52;92.72;92117.56;1818496;78;21434;-84
2021/01/05 10:52:52;;;;;;;6.90;5.35;;;;;;;3.57;92.85;92117.21;1818723;78;21161;-84
2021/01/05 10:55:26;;;;;;;7.22;5.95;;;;;;;3.59;92.83;92127.56;1817882;78;21172;-83
2021/01/05 10:57:57;;;;;;;8.18;6.08;;;;;;;3.60;92.82;92137.16;1805835;79;21588;-83
2021/01/05 11:00:25;;;;;;;6.00;5.35;;;;;;;3.60;92.80;92130.44;1844586;77;21298;-81
2021/01/05 11:02:54;;;;;;;9.65;7.40;;;;;;;3.60;92.95;92119.11;1763076;80;21204;-81
2021/01/05 11:05:24;;;;;;;9.30;6.53;;;;;;;3.67;93.03;92117.59;1826095;77;21211;-79
2021/01/05 11:07:52;;;;;;;6.78;5.70;;;;;;;3.67;93.03;92117.59;1778271;80;21171;-82
2021/01/05 11:10:21;;;;;;;5.92;5.03;;;;;;;3.71;92.77;92126.42;1805995;77;21490;-81
2021/01/05 11:12:50;;;;;;;8.05;6.33;;;;;;;3.77;92.74;92128.94;1788223;80;21654;-81
2021/01/05 11:15:19;;;;;;;7.90;5.40;;;;;;;3.79;92.10;92119.31;1808002;79;22308;-82
2021/01/05 11:17:49;;;;;;;7.75;6.28;;;;;;;3.81;92.06;92120.30;1805709;77;21463;-83
2021/01/05 11:20:19;;;;;;;13.65;8.50;;;;;;;3.83;91.87;92113.94;1785359;78;21196;-81
2021/01/05 11:22:49;;;;;;;8.78;6.35;;;;;;;3.85;91.81;92121.06;1843917;77;21237;-80
2021/01/05 11:25:18;;;;;;;9.18;6.70;;;;;;;3.85;91.87;92123.17;1827891;78;21163;-78
2021/01/05 11:27:46;;;;;;;9.88;7.28;;;;;;;3.83;91.59;92113.36;1827733;78;21203;-77
2021/01/05 11:30:23;;;;;;;8.18;6.20;;;;;;;3.81;91.79;92119.72;1827946;78;21531;-80
2021/01/05 11:32:51;;;;;;;10.23;6.20;;;;;;;3.80;91.94;92110.13;1828028;78;21234;-80
2021/01/05 11:35:21;;;;;;;8.73;6.40;;;;;;;3.86;92.18;92119.91;1828257;78;21044;-80
2021/01/05 11:37:51;;;;;;;8.05;6.75;;;;;;;3.96;92.37;92118.38;1827960;78;21171;-82
2021/01/05 11:40:19;;;;;;;10.28;7.67;;;;;;;3.96;92.37;92118.38;1828507;78;21306;-80
2021/01/05 11:42:49;;;;;;;9.35;6.90;;;;;;;4.00;92.45;92109.73;1848406;77;21148;-82
2021/01/05 11:45:17;;;;;;;10.23;7.47;;;;;;;4.02;92.17;92113.55;1832064;77;21194;-82
2021/01/05 11:47:45;;;;;;;10.30;7.95;;;;;;;4.02;92.17;92113.55;1828515;78;21155;-80
2021/01/05 11:50:14;;;;;;;8.38;6.78;;;;;;;4.07;92.40;92113.18;1828731;78;21955;-79
2021/01/05 11:52:42;;;;;;;8.68;6.95;;;;;;;4.14;92.44;92114.52;1823421;78;22029;-78
2021/01/05 11:55:11;;;;;;;9.53;6.87;;;;;;;4.18;92.27;92114.52;1786512;80;21184;-79
2021/01/05 11:57:40;;;;;;;8.88;6.78;;;;;;;4.21;92.13;92122.38;1784184;79;21212;-77
2021/01/05 12:00:11;;;;;;;8.23;6.47;;;;;;;4.21;91.92;92117.77;1763994;79;21158;-79
2021/01/05 12:02:41;;;;;;;7.62;6.53;;;;;;;4.24;91.95;92116.23;1813388;78;21132;-80
2021/01/05 12:05:14;;;;;;;10.10;6.33;;;;;;;4.29;91.88;92118.55;1775479;80;21205;-79
2021/01/05 12:07:48;;;;;;;9.70;6.40;;;;;;;4.31;91.69;92121.61;1712443;81;21117;-78
2021/01/05 12:10:16;;;;;;;9.48;6.58;;;;;;;4.29;91.42;92121.23;1779036;80;21120;-80
2021/01/05 12:12:44;;;;;;;14.35;8.20;;;;;;;4.29;91.28;92123.94;1810391;79;21116;-84
2021/01/05 12:15:14;;;;;;;11.88;7.75;;;;;;;4.26;91.15;92127.39;1812766;79;21674;-79
2021/01/05 12:17:43;;;;;;;10.13;7.42;;;;;;;4.23;91.10;92122.20;1763955;79;21424;-79
2021/01/05 12:20:12;;;;;;;15.05;8.33;;;;;;;4.22;91.03;92122.59;1772824;80;21201;-81
2021/01/05 12:22:40;;;;;;;12.13;9.30;;;;;;;4.20;91.01;92125.66;1785279;80;21196;-81
2021/01/05 12:25:11;;;;;;;9.60;7.30;;;;;;;4.22;91.05;92132.01;1779322;80;21184;-86
2021/01/05 12:27:39;;;;;;;10.05;7.33;;;;;;;4.25;90.84;92131.22;1757546;79;21278;-84